sensor_id;sensor_type;location;lat;lon;timestamp;P1;durP1;ratioP1;P2;durP2;ratioP2
14272;SDS011;7220;49.450;11.052;2023-07-08T00:03:15;7.03;;;6.00;;
14272;SDS011;7220;49.450;11.052;2023-07-08T00:07:16;7.40;;;5.88;;
14272;SDS011;7220;49.450;11.052;2023-07-08T00:11:20;7.60;;;6.30;;
14272;SDS011;7220;49.450;11.052;2023-07-08T00:15:22;5.90;;;5.40;;
14272;SDS011;7220;49.450;11.052;2023-07-08T00:19:26;6.30;;;5.65;;
14272;SDS011;7220;49.450;11.052;2023-07-08T00:23:26;6.13;;;5.47;;
14272;SDS011;7220;49.450;11.052;2023-07-08T00:27:27;7.83;;;6.37;;
14272;SDS011;7220;49.450;11.052;2023-07-08T00:31:27;6.40;;;5.73;;
14272;SDS011;7220;49.450;11.052;2023-07-08T00:35:32;6.78;;;5.55;;
14272;SDS011;7220;49.450;11.052;2023-07-08T00:39:35;6.18;;;5.57;;
14272;SDS011;7220;49.450;11.052;2023-07-08T00:43:39;7.27;;;5.60;;
14272;SDS011;7220;49.450;11.052;2023-07-08T00:47:43;6.80;;;5.55;;
14272;SDS011;7220;49.450;11.052;2023-07-08T00:51:43;6.45;;;5.85;;
14272;SDS011;7220;49.450;11.052;2023-07-08T00:55:44;6.07;;;5.47;;
14272;SDS011;7220;49.450;11.052;2023-07-08T01:04:07;8.25;;;6.00;;
14272;SDS011;7220;49.450;11.052;2023-07-08T01:08:11;7.03;;;5.85;;
14272;SDS011;7220;49.450;11.052;2023-07-08T01:12:13;5.53;;;5.00;;
14272;SDS011;7220;49.450;11.052;2023-07-08T01:16:17;6.93;;;5.00;;
14272;SDS011;7220;49.450;11.052;2023-07-08T01:20:17;6.20;;;5.60;;
14272;SDS011;7220;49.450;11.052;2023-07-08T01:24:17;7.43;;;5.90;;
14272;SDS011;7220;49.450;11.052;2023-07-08T01:28:18;8.80;;;5.95;;
14272;SDS011;7220;49.450;11.052;2023-07-08T01:32:20;8.82;;;6.28;;
14272;SDS011;7220;49.450;11.052;2023-07-08T01:36:20;7.50;;;5.40;;
14272;SDS011;7220;49.450;11.052;2023-07-08T01:44:35;11.85;;;6.40;;
14272;SDS011;7220;49.450;11.052;2023-07-08T01:48:37;12.40;;;6.43;;
14272;SDS011;7220;49.450;11.052;2023-07-08T01:52:40;6.93;;;6.10;;
14272;SDS011;7220;49.450;11.052;2023-07-08T01:56:40;7.15;;;6.10;;
14272;SDS011;7220;49.450;11.052;2023-07-08T02:00:40;8.90;;;5.93;;
14272;SDS011;7220;49.450;11.052;2023-07-08T02:04:41;8.25;;;6.38;;
14272;SDS011;7220;49.450;11.052;2023-07-08T02:08:41;11.90;;;5.87;;
14272;SDS011;7220;49.450;11.052;2023-07-08T02:12:41;6.37;;;5.63;;
14272;SDS011;7220;49.450;11.052;2023-07-08T02:16:41;6.23;;;5.33;;
14272;SDS011;7220;49.450;11.052;2023-07-08T02:20:42;6.97;;;5.70;;
14272;SDS011;7220;49.450;11.052;2023-07-08T02:24:43;6.88;;;5.15;;
14272;SDS011;7220;49.450;11.052;2023-07-08T02:28:43;5.80;;;5.20;;
14272;SDS011;7220;49.450;11.052;2023-07-08T02:32:43;7.20;;;5.37;;
14272;SDS011;7220;49.450;11.052;2023-07-08T02:36:56;7.00;;;4.95;;
14272;SDS011;7220;49.450;11.052;2023-07-08T02:40:57;8.43;;;5.43;;
14272;SDS011;7220;49.450;11.052;2023-07-08T02:44:57;6.68;;;5.05;;
14272;SDS011;7220;49.450;11.052;2023-07-08T02:48:57;6.83;;;5.83;;
14272;SDS011;7220;49.450;11.052;2023-07-08T02:52:58;9.03;;;5.37;;
14272;SDS011;7220;49.450;11.052;2023-07-08T02:56:58;6.27;;;5.27;;
14272;SDS011;7220;49.450;11.052;2023-07-08T03:00:58;6.57;;;5.43;;
14272;SDS011;7220;49.450;11.052;2023-07-08T03:05:00;6.25;;;5.43;;
14272;SDS011;7220;49.450;11.052;2023-07-08T03:09:00;5.85;;;5.20;;
14272;SDS011;7220;49.450;11.052;2023-07-08T03:13:01;6.17;;;5.57;;
14272;SDS011;7220;49.450;11.052;2023-07-08T03:17:01;5.30;;;4.80;;
14272;SDS011;7220;49.450;11.052;2023-07-08T03:21:02;5.82;;;5.22;;
14272;SDS011;7220;49.450;11.052;2023-07-08T03:25:03;6.63;;;5.28;;
14272;SDS011;7220;49.450;11.052;2023-07-08T03:29:05;7.43;;;5.45;;
14272;SDS011;7220;49.450;11.052;2023-07-08T03:33:09;9.85;;;5.45;;
14272;SDS011;7220;49.450;11.052;2023-07-08T03:37:09;6.50;;;5.10;;
14272;SDS011;7220;49.450;11.052;2023-07-08T03:41:10;5.85;;;5.25;;
14272;SDS011;7220;49.450;11.052;2023-07-08T03:45:10;6.37;;;5.00;;
14272;SDS011;7220;49.450;11.052;2023-07-08T03:49:11;5.80;;;4.87;;
14272;SDS011;7220;49.450;11.052;2023-07-08T03:53:11;6.07;;;5.47;;
14272;SDS011;7220;49.450;11.052;2023-07-08T03:57:12;6.50;;;5.60;;
14272;SDS011;7220;49.450;11.052;2023-07-08T04:01:16;6.22;;;5.30;;
14272;SDS011;7220;49.450;11.052;2023-07-08T04:05:21;6.50;;;5.68;;
14272;SDS011;7220;49.450;11.052;2023-07-08T04:09:23;6.55;;;5.78;;
14272;SDS011;7220;49.450;11.052;2023-07-08T04:13:23;9.23;;;6.67;;
14272;SDS011;7220;49.450;11.052;2023-07-08T04:17:23;7.13;;;5.43;;
14272;SDS011;7220;49.450;11.052;2023-07-08T04:21:24;6.72;;;5.40;;
14272;SDS011;7220;49.450;11.052;2023-07-08T04:25:29;6.10;;;4.95;;
14272;SDS011;7220;49.450;11.052;2023-07-08T04:29:30;6.07;;;5.43;;
14272;SDS011;7220;49.450;11.052;2023-07-08T04:33:31;5.72;;;4.72;;
14272;SDS011;7220;49.450;11.052;2023-07-08T04:37:31;6.00;;;5.27;;
14272;SDS011;7220;49.450;11.052;2023-07-08T04:41:32;6.38;;;5.78;;
14272;SDS011;7220;49.450;11.052;2023-07-08T04:45:33;6.40;;;5.30;;
14272;SDS011;7220;49.450;11.052;2023-07-08T04:49:33;7.80;;;5.47;;
14272;SDS011;7220;49.450;11.052;2023-07-08T04:53:34;5.72;;;5.13;;
14272;SDS011;7220;49.450;11.052;2023-07-08T04:57:35;5.53;;;4.70;;
14272;SDS011;7220;49.450;11.052;2023-07-08T05:01:35;6.07;;;5.15;;
14272;SDS011;7220;49.450;11.052;2023-07-08T05:05:36;6.15;;;5.22;;
14272;SDS011;7220;49.450;11.052;2023-07-08T05:09:36;5.72;;;5.13;;
14272;SDS011;7220;49.450;11.052;2023-07-08T05:13:37;5.75;;;5.13;;
14272;SDS011;7220;49.450;11.052;2023-07-08T05:17:38;5.85;;;5.25;;
14272;SDS011;7220;49.450;11.052;2023-07-08T05:21:39;7.80;;;5.82;;
14272;SDS011;7220;49.450;11.052;2023-07-08T05:25:39;6.50;;;5.10;;
14272;SDS011;7220;49.450;11.052;2023-07-08T05:29:39;6.83;;;5.57;;
14272;SDS011;7220;49.450;11.052;2023-07-08T05:33:40;6.50;;;4.77;;
14272;SDS011;7220;49.450;11.052;2023-07-08T05:37:40;6.50;;;5.03;;
14272;SDS011;7220;49.450;11.052;2023-07-08T05:41:41;7.53;;;5.68;;
14272;SDS011;7220;49.450;11.052;2023-07-08T05:45:41;6.10;;;5.30;;
14272;SDS011;7220;49.450;11.052;2023-07-08T05:49:41;6.53;;;5.20;;
14272;SDS011;7220;49.450;11.052;2023-07-08T05:53:42;6.50;;;5.40;;
14272;SDS011;7220;49.450;11.052;2023-07-08T05:57:42;6.47;;;4.75;;
14272;SDS011;7220;49.450;11.052;2023-07-08T06:01:43;6.53;;;5.35;;
14272;SDS011;7220;49.450;11.052;2023-07-08T06:05:43;6.03;;;5.37;;
14272;SDS011;7220;49.450;11.052;2023-07-08T06:09:44;5.20;;;4.70;;
14272;SDS011;7220;49.450;11.052;2023-07-08T06:13:44;6.07;;;5.47;;
14272;SDS011;7220;49.450;11.052;2023-07-08T06:17:45;6.97;;;5.57;;
14272;SDS011;7220;49.450;11.052;2023-07-08T06:21:45;7.07;;;5.40;;
14272;SDS011;7220;49.450;11.052;2023-07-08T06:25:45;6.85;;;5.60;;
14272;SDS011;7220;49.450;11.052;2023-07-08T06:29:46;6.20;;;5.57;;
14272;SDS011;7220;49.450;11.052;2023-07-08T06:33:46;5.33;;;4.83;;
14272;SDS011;7220;49.450;11.052;2023-07-08T06:37:46;7.63;;;6.30;;
14272;SDS011;7220;49.450;11.052;2023-07-08T06:41:47;8.02;;;5.32;;
14272;SDS011;7220;49.450;11.052;2023-07-08T06:45:47;7.43;;;5.83;;
14272;SDS011;7220;49.450;11.052;2023-07-08T06:49:47;7.00;;;4.90;;
14272;SDS011;7220;49.450;11.052;2023-07-08T06:53:48;7.47;;;5.50;;
14272;SDS011;7220;49.450;11.052;2023-07-08T06:57:48;6.22;;;5.47;;
14272;SDS011;7220;49.450;11.052;2023-07-08T07:01:49;6.65;;;5.43;;
14272;SDS011;7220;49.450;11.052;2023-07-08T07:05:49;6.40;;;5.35;;
14272;SDS011;7220;49.450;11.052;2023-07-08T07:09:49;8.50;;;5.37;;
14272;SDS011;7220;49.450;11.052;2023-07-08T07:13:50;6.80;;;5.25;;
14272;SDS011;7220;49.450;11.052;2023-07-08T07:17:50;5.93;;;5.10;;
14272;SDS011;7220;49.450;11.052;2023-07-08T07:21:51;5.30;;;4.80;;
14272;SDS011;7220;49.450;11.052;2023-07-08T07:25:51;6.35;;;5.68;;
14272;SDS011;7220;49.450;11.052;2023-07-08T07:29:51;8.30;;;6.30;;
14272;SDS011;7220;49.450;11.052;2023-07-08T07:33:52;7.25;;;5.13;;
14272;SDS011;7220;49.450;11.052;2023-07-08T07:37:52;6.30;;;5.00;;
14272;SDS011;7220;49.450;11.052;2023-07-08T07:41:52;6.30;;;5.67;;
14272;SDS011;7220;49.450;11.052;2023-07-08T07:45:53;6.13;;;5.13;;
14272;SDS011;7220;49.450;11.052;2023-07-08T07:49:53;7.33;;;5.20;;
14272;SDS011;7220;49.450;11.052;2023-07-08T07:53:53;5.20;;;4.70;;
14272;SDS011;7220;49.450;11.052;2023-07-08T07:57:54;5.45;;;4.95;;
14272;SDS011;7220;49.450;11.052;2023-07-08T08:01:54;9.70;;;5.23;;
14272;SDS011;7220;49.450;11.052;2023-07-08T08:05:54;7.20;;;5.05;;
14272;SDS011;7220;49.450;11.052;2023-07-08T08:09:55;5.67;;;5.17;;
14272;SDS011;7220;49.450;11.052;2023-07-08T08:13:55;9.55;;;6.15;;
14272;SDS011;7220;49.450;11.052;2023-07-08T08:17:56;6.25;;;5.20;;
14272;SDS011;7220;49.450;11.052;2023-07-08T08:21:56;5.57;;;4.80;;
14272;SDS011;7220;49.450;11.052;2023-07-08T08:25:56;5.60;;;4.93;;
14272;SDS011;7220;49.450;11.052;2023-07-08T08:29:56;5.97;;;5.03;;
14272;SDS011;7220;49.450;11.052;2023-07-08T08:33:57;4.40;;;4.00;;
14272;SDS011;7220;49.450;11.052;2023-07-08T08:37:57;6.63;;;5.20;;
14272;SDS011;7220;49.450;11.052;2023-07-08T08:41:57;5.80;;;4.60;;
14272;SDS011;7220;49.450;11.052;2023-07-08T08:46:00;5.32;;;4.57;;
14272;SDS011;7220;49.450;11.052;2023-07-08T08:50:16;7.88;;;4.97;;
14272;SDS011;7220;49.450;11.052;2023-07-08T08:54:20;5.80;;;4.85;;
14272;SDS011;7220;49.450;11.052;2023-07-08T08:58:30;6.07;;;5.22;;
14272;SDS011;7220;49.450;11.052;2023-07-08T09:06:53;10.27;;;5.85;;
14272;SDS011;7220;49.450;11.052;2023-07-08T09:11:01;9.50;;;5.25;;
14272;SDS011;7220;49.450;11.052;2023-07-08T09:15:12;16.60;;;5.95;;
14272;SDS011;7220;49.450;11.052;2023-07-08T09:19:18;7.53;;;4.80;;
14272;SDS011;7220;49.450;11.052;2023-07-08T09:23:30;6.00;;;4.53;;
14272;SDS011;7220;49.450;11.052;2023-07-08T09:27:35;6.75;;;5.07;;
14272;SDS011;7220;49.450;11.052;2023-07-08T09:31:37;12.00;;;5.40;;
14272;SDS011;7220;49.450;11.052;2023-07-08T09:35:41;5.85;;;4.50;;
14272;SDS011;7220;49.450;11.052;2023-07-08T09:39:44;6.90;;;5.78;;
14272;SDS011;7220;49.450;11.052;2023-07-08T09:43:44;7.00;;;5.67;;
14272;SDS011;7220;49.450;11.052;2023-07-08T09:47:44;6.90;;;6.07;;
14272;SDS011;7220;49.450;11.052;2023-07-08T09:51:46;28.83;;;7.30;;
14272;SDS011;7220;49.450;11.052;2023-07-08T09:55:46;17.92;;;6.35;;
14272;SDS011;7220;49.450;11.052;2023-07-08T09:59:51;6.53;;;5.50;;
14272;SDS011;7220;49.450;11.052;2023-07-08T10:03:57;14.52;;;6.35;;
14272;SDS011;7220;49.450;11.052;2023-07-08T10:08:00;18.90;;;6.90;;
14272;SDS011;7220;49.450;11.052;2023-07-08T10:12:03;13.27;;;5.45;;
14272;SDS011;7220;49.450;11.052;2023-07-08T10:16:17;9.98;;;5.78;;
14272;SDS011;7220;49.450;11.052;2023-07-08T10:20:25;8.98;;;5.75;;
14272;SDS011;7220;49.450;11.052;2023-07-08T10:29:02;7.20;;;4.95;;
14272;SDS011;7220;49.450;11.052;2023-07-08T10:33:23;4.85;;;4.45;;
14272;SDS011;7220;49.450;11.052;2023-07-08T10:42:03;10.10;;;5.22;;
14272;SDS011;7220;49.450;11.052;2023-07-08T10:46:16;7.57;;;5.25;;
14272;SDS011;7220;49.450;11.052;2023-07-08T10:50:40;6.18;;;5.43;;
14272;SDS011;7220;49.450;11.052;2023-07-08T10:55:19;6.28;;;5.07;;
14272;SDS011;7220;49.450;11.052;2023-07-08T10:59:30;4.68;;;4.13;;
14272;SDS011;7220;49.450;11.052;2023-07-08T11:04:07;6.65;;;4.53;;
14272;SDS011;7220;49.450;11.052;2023-07-08T11:08:35;7.25;;;5.03;;
14272;SDS011;7220;49.450;11.052;2023-07-08T11:12:58;13.57;;;5.55;;
14272;SDS011;7220;49.450;11.052;2023-07-08T11:21:20;6.22;;;5.63;;
14272;SDS011;7220;49.450;11.052;2023-07-08T11:25:26;5.30;;;4.40;;
14272;SDS011;7220;49.450;11.052;2023-07-08T11:29:36;5.80;;;4.90;;
14272;SDS011;7220;49.450;11.052;2023-07-08T11:33:40;5.45;;;4.43;;
14272;SDS011;7220;49.450;11.052;2023-07-08T11:37:42;5.90;;;5.40;;
14272;SDS011;7220;49.450;11.052;2023-07-08T11:41:43;8.00;;;4.80;;
14272;SDS011;7220;49.450;11.052;2023-07-08T11:45:43;5.93;;;4.57;;
14272;SDS011;7220;49.450;11.052;2023-07-08T11:49:45;4.88;;;4.40;;
14272;SDS011;7220;49.450;11.052;2023-07-08T11:53:49;5.63;;;4.28;;
14272;SDS011;7220;49.450;11.052;2023-07-08T11:57:52;6.20;;;5.63;;
14272;SDS011;7220;49.450;11.052;2023-07-08T12:06:39;6.38;;;5.03;;
14272;SDS011;7220;49.450;11.052;2023-07-08T12:10:38;7.72;;;4.78;;
14272;SDS011;7220;49.450;11.052;2023-07-08T12:14:41;6.60;;;5.40;;
14272;SDS011;7220;49.450;11.052;2023-07-08T12:18:42;4.85;;;4.45;;
14272;SDS011;7220;49.450;11.052;2023-07-08T12:22:46;6.15;;;5.05;;
14272;SDS011;7220;49.450;11.052;2023-07-08T12:26:47;5.55;;;5.05;;
14272;SDS011;7220;49.450;11.052;2023-07-08T12:30:47;6.53;;;4.57;;
14272;SDS011;7220;49.450;11.052;2023-07-08T12:34:49;4.97;;;3.95;;
14272;SDS011;7220;49.450;11.052;2023-07-08T12:38:49;4.83;;;4.40;;
14272;SDS011;7220;49.450;11.052;2023-07-08T12:42:50;5.75;;;5.25;;
14272;SDS011;7220;49.450;11.052;2023-07-08T12:46:52;5.50;;;4.95;;
14272;SDS011;7220;49.450;11.052;2023-07-08T12:50:54;5.30;;;4.80;;
14272;SDS011;7220;49.450;11.052;2023-07-08T12:54:54;6.07;;;4.65;;
14272;SDS011;7220;49.450;11.052;2023-07-08T12:58:56;5.00;;;4.60;;
14272;SDS011;7220;49.450;11.052;2023-07-08T13:03:03;5.40;;;4.90;;
14272;SDS011;7220;49.450;11.052;2023-07-08T13:07:09;8.38;;;5.57;;
14272;SDS011;7220;49.450;11.052;2023-07-08T13:11:22;4.90;;;4.50;;
14272;SDS011;7220;49.450;11.052;2023-07-08T13:15:28;4.90;;;4.50;;
14272;SDS011;7220;49.450;11.052;2023-07-08T13:19:33;7.47;;;5.28;;
14272;SDS011;7220;49.450;11.052;2023-07-08T13:23:34;6.35;;;5.63;;
14272;SDS011;7220;49.450;11.052;2023-07-08T13:27:35;6.15;;;4.72;;
14272;SDS011;7220;49.450;11.052;2023-07-08T13:31:37;5.17;;;4.77;;
14272;SDS011;7220;49.450;11.052;2023-07-08T13:35:38;6.50;;;4.75;;
14272;SDS011;7220;49.450;11.052;2023-07-08T13:39:43;5.40;;;5.00;;
14272;SDS011;7220;49.450;11.052;2023-07-08T13:43:45;9.25;;;4.38;;
14272;SDS011;7220;49.450;11.052;2023-07-08T13:47:46;5.00;;;4.50;;
14272;SDS011;7220;49.450;11.052;2023-07-08T13:52:31;5.35;;;4.70;;
14272;SDS011;7220;49.450;11.052;2023-07-08T13:56:27;8.18;;;5.35;;
14272;SDS011;7220;49.450;11.052;2023-07-08T14:00:30;5.25;;;4.85;;
14272;SDS011;7220;49.450;11.052;2023-07-08T14:04:33;6.63;;;5.15;;
14272;SDS011;7220;49.450;11.052;2023-07-08T14:08:35;5.75;;;5.10;;
14272;SDS011;7220;49.450;11.052;2023-07-08T14:12:35;5.97;;;5.03;;
14272;SDS011;7220;49.450;11.052;2023-07-08T14:16:45;5.77;;;4.93;;
14272;SDS011;7220;49.450;11.052;2023-07-08T14:20:48;5.03;;;4.63;;
14272;SDS011;7220;49.450;11.052;2023-07-08T14:24:50;4.90;;;4.47;;
14272;SDS011;7220;49.450;11.052;2023-07-08T14:28:51;5.85;;;5.35;;
14272;SDS011;7220;49.450;11.052;2023-07-08T14:32:51;5.07;;;4.27;;
14272;SDS011;7220;49.450;11.052;2023-07-08T14:36:52;6.50;;;5.68;;
14272;SDS011;7220;49.450;11.052;2023-07-08T14:40:52;7.53;;;5.00;;
14272;SDS011;7220;49.450;11.052;2023-07-08T14:44:53;5.80;;;5.25;;
14272;SDS011;7220;49.450;11.052;2023-07-08T14:48:53;10.27;;;5.50;;
14272;SDS011;7220;49.450;11.052;2023-07-08T14:52:53;8.23;;;5.23;;
14272;SDS011;7220;49.450;11.052;2023-07-08T14:56:57;5.83;;;4.97;;
14272;SDS011;7220;49.450;11.052;2023-07-08T15:00:59;7.32;;;5.97;;
14272;SDS011;7220;49.450;11.052;2023-07-08T15:05:04;7.00;;;6.30;;
14272;SDS011;7220;49.450;11.052;2023-07-08T15:09:08;5.85;;;5.20;;
14272;SDS011;7220;49.450;11.052;2023-07-08T15:13:09;6.47;;;5.75;;
14272;SDS011;7220;49.450;11.052;2023-07-08T15:17:13;5.30;;;4.85;;
14272;SDS011;7220;49.450;11.052;2023-07-08T15:21:16;6.68;;;5.13;;
14272;SDS011;7220;49.450;11.052;2023-07-08T15:25:17;5.80;;;5.22;;
14272;SDS011;7220;49.450;11.052;2023-07-08T15:29:19;5.93;;;5.32;;
14272;SDS011;7220;49.450;11.052;2023-07-08T15:33:22;5.68;;;5.18;;
14272;SDS011;7220;49.450;11.052;2023-07-08T15:37:22;6.00;;;5.40;;
14272;SDS011;7220;49.450;11.052;2023-07-08T15:41:23;5.73;;;5.23;;
14272;SDS011;7220;49.450;11.052;2023-07-08T15:45:29;5.72;;;5.13;;
14272;SDS011;7220;49.450;11.052;2023-07-08T15:49:32;6.15;;;5.47;;
14272;SDS011;7220;49.450;11.052;2023-07-08T15:53:33;5.88;;;5.38;;
14272;SDS011;7220;49.450;11.052;2023-07-08T15:57:35;5.30;;;4.80;;
14272;SDS011;7220;49.450;11.052;2023-07-08T16:01:43;5.63;;;5.13;;
14272;SDS011;7220;49.450;11.052;2023-07-08T16:05:43;6.85;;;4.82;;
14272;SDS011;7220;49.450;11.052;2023-07-08T16:09:43;5.50;;;5.00;;
14272;SDS011;7220;49.450;11.052;2023-07-08T16:13:44;5.57;;;5.00;;
14272;SDS011;7220;49.450;11.052;2023-07-08T16:17:46;5.75;;;5.25;;
14272;SDS011;7220;49.450;11.052;2023-07-08T16:21:47;6.07;;;5.23;;
14272;SDS011;7220;49.450;11.052;2023-07-08T16:25:48;6.30;;;5.57;;
14272;SDS011;7220;49.450;11.052;2023-07-08T16:29:50;5.85;;;5.25;;
14272;SDS011;7220;49.450;11.052;2023-07-08T16:33:50;7.17;;;5.30;;
14272;SDS011;7220;49.450;11.052;2023-07-08T16:37:51;6.27;;;5.60;;
14272;SDS011;7220;49.450;11.052;2023-07-08T16:41:53;5.85;;;5.35;;
14272;SDS011;7220;49.450;11.052;2023-07-08T16:45:53;6.33;;;4.80;;
14272;SDS011;7220;49.450;11.052;2023-07-08T16:49:53;7.23;;;6.13;;
14272;SDS011;7220;49.450;11.052;2023-07-08T16:53:58;6.90;;;5.17;;
14272;SDS011;7220;49.450;11.052;2023-07-08T16:58:09;5.93;;;5.40;;
14272;SDS011;7220;49.450;11.052;2023-07-08T17:02:14;6.15;;;5.40;;
14272;SDS011;7220;49.450;11.052;2023-07-08T17:06:15;5.50;;;5.00;;
14272;SDS011;7220;49.450;11.052;2023-07-08T17:10:17;7.03;;;5.28;;
14272;SDS011;7220;49.450;11.052;2023-07-08T17:14:18;5.72;;;5.13;;
14272;SDS011;7220;49.450;11.052;2023-07-08T17:18:19;5.67;;;5.17;;
14272;SDS011;7220;49.450;11.052;2023-07-08T17:22:21;6.07;;;5.47;;
14272;SDS011;7220;49.450;11.052;2023-07-08T17:26:22;6.07;;;5.07;;
14272;SDS011;7220;49.450;11.052;2023-07-08T17:30:22;5.57;;;5.07;;
14272;SDS011;7220;49.450;11.052;2023-07-08T17:34:25;5.77;;;4.80;;
14272;SDS011;7220;49.450;11.052;2023-07-08T17:42:43;5.55;;;5.07;;
14272;SDS011;7220;49.450;11.052;2023-07-08T17:46:44;5.90;;;5.30;;
14272;SDS011;7220;49.450;11.052;2023-07-08T17:50:44;6.35;;;5.75;;
14272;SDS011;7220;49.450;11.052;2023-07-08T17:54:44;7.93;;;7.23;;
14272;SDS011;7220;49.450;11.052;2023-07-08T17:58:46;6.47;;;5.80;;
14272;SDS011;7220;49.450;11.052;2023-07-08T18:02:47;5.93;;;5.32;;
14272;SDS011;7220;49.450;11.052;2023-07-08T18:06:48;8.48;;;5.82;;
14272;SDS011;7220;49.450;11.052;2023-07-08T18:10:48;11.00;;;5.88;;
14272;SDS011;7220;49.450;11.052;2023-07-08T18:14:48;8.03;;;6.30;;
14272;SDS011;7220;49.450;11.052;2023-07-08T18:18:49;6.90;;;6.20;;
14272;SDS011;7220;49.450;11.052;2023-07-08T18:22:50;6.63;;;5.90;;
14272;SDS011;7220;49.450;11.052;2023-07-08T18:26:52;7.05;;;6.05;;
14272;SDS011;7220;49.450;11.052;2023-07-08T18:30:53;10.77;;;6.30;;
14272;SDS011;7220;49.450;11.052;2023-07-08T18:34:53;8.13;;;6.10;;
14272;SDS011;7220;49.450;11.052;2023-07-08T18:38:53;7.17;;;6.37;;
14272;SDS011;7220;49.450;11.052;2023-07-08T18:42:57;8.27;;;5.43;;
14272;SDS011;7220;49.450;11.052;2023-07-08T18:46:59;6.75;;;6.05;;
14272;SDS011;7220;49.450;11.052;2023-07-08T18:51:04;7.75;;;5.88;;
14272;SDS011;7220;49.450;11.052;2023-07-08T18:55:21;8.32;;;7.05;;
14272;SDS011;7220;49.450;11.052;2023-07-08T18:59:23;9.30;;;8.00;;
14272;SDS011;7220;49.450;11.052;2023-07-08T19:03:24;7.63;;;6.03;;
14272;SDS011;7220;49.450;11.052;2023-07-08T19:07:27;7.35;;;6.43;;
14272;SDS011;7220;49.450;11.052;2023-07-08T19:11:28;14.07;;;8.50;;
14272;SDS011;7220;49.450;11.052;2023-07-08T19:15:30;10.10;;;6.40;;
14272;SDS011;7220;49.450;11.052;2023-07-08T19:19:31;8.93;;;6.80;;
14272;SDS011;7220;49.450;11.052;2023-07-08T19:23:32;6.83;;;5.97;;
14272;SDS011;7220;49.450;11.052;2023-07-08T19:27:32;7.37;;;6.67;;
14272;SDS011;7220;49.450;11.052;2023-07-08T19:31:32;11.97;;;7.67;;
14272;SDS011;7220;49.450;11.052;2023-07-08T19:35:35;8.30;;;6.80;;
14272;SDS011;7220;49.450;11.052;2023-07-08T19:39:40;7.57;;;6.28;;
14272;SDS011;7220;49.450;11.052;2023-07-08T19:43:40;9.90;;;8.10;;
14272;SDS011;7220;49.450;11.052;2023-07-08T19:47:41;11.27;;;8.73;;
14272;SDS011;7220;49.450;11.052;2023-07-08T19:51:42;9.85;;;7.25;;
14272;SDS011;7220;49.450;11.052;2023-07-08T19:55:42;8.75;;;7.10;;
14272;SDS011;7220;49.450;11.052;2023-07-08T19:59:43;7.30;;;6.60;;
14272;SDS011;7220;49.450;11.052;2023-07-08T20:03:43;7.60;;;6.90;;
14272;SDS011;7220;49.450;11.052;2023-07-08T20:07:43;11.77;;;10.57;;
14272;SDS011;7220;49.450;11.052;2023-07-08T20:11:44;8.00;;;6.78;;
14272;SDS011;7220;49.450;11.052;2023-07-08T20:15:44;7.80;;;6.97;;
14272;SDS011;7220;49.450;11.052;2023-07-08T20:19:45;8.48;;;7.47;;
14272;SDS011;7220;49.450;11.052;2023-07-08T20:23:46;8.07;;;7.28;;
14272;SDS011;7220;49.450;11.052;2023-07-08T20:27:46;10.80;;;7.80;;
14272;SDS011;7220;49.450;11.052;2023-07-08T20:31:47;8.68;;;7.38;;
14272;SDS011;7220;49.450;11.052;2023-07-08T20:35:48;12.30;;;6.30;;
14272;SDS011;7220;49.450;11.052;2023-07-08T20:39:49;10.07;;;7.13;;
14272;SDS011;7220;49.450;11.052;2023-07-08T20:43:50;8.50;;;6.50;;
14272;SDS011;7220;49.450;11.052;2023-07-08T20:47:50;7.45;;;6.75;;
14272;SDS011;7220;49.450;11.052;2023-07-08T20:51:51;8.35;;;5.68;;
14272;SDS011;7220;49.450;11.052;2023-07-08T20:55:52;7.95;;;6.25;;
14272;SDS011;7220;49.450;11.052;2023-07-08T20:59:52;7.57;;;6.82;;
14272;SDS011;7220;49.450;11.052;2023-07-08T21:03:53;7.87;;;6.70;;
14272;SDS011;7220;49.450;11.052;2023-07-08T21:07:57;8.10;;;7.30;;
14272;SDS011;7220;49.450;11.052;2023-07-08T21:11:58;8.23;;;6.90;;
14272;SDS011;7220;49.450;11.052;2023-07-08T21:15:58;14.87;;;7.80;;
14272;SDS011;7220;49.450;11.052;2023-07-08T21:19:59;8.10;;;7.30;;
14272;SDS011;7220;49.450;11.052;2023-07-08T21:23:59;10.37;;;7.77;;
14272;SDS011;7220;49.450;11.052;2023-07-08T21:27:59;7.87;;;7.17;;
14272;SDS011;7220;49.450;11.052;2023-07-08T21:32:00;11.43;;;7.97;;
14272;SDS011;7220;49.450;11.052;2023-07-08T21:36:00;9.47;;;8.53;;
14272;SDS011;7220;49.450;11.052;2023-07-08T21:40:00;9.10;;;8.20;;
14272;SDS011;7220;49.450;11.052;2023-07-08T21:44:01;9.48;;;8.40;;
14272;SDS011;7220;49.450;11.052;2023-07-08T21:48:02;9.40;;;8.50;;
14272;SDS011;7220;49.450;11.052;2023-07-08T21:52:03;9.25;;;8.35;;
14272;SDS011;7220;49.450;11.052;2023-07-08T21:56:04;8.60;;;7.68;;
14272;SDS011;7220;49.450;11.052;2023-07-08T22:00:04;9.90;;;8.57;;
14272;SDS011;7220;49.450;11.052;2023-07-08T22:04:11;13.15;;;8.65;;
14272;SDS011;7220;49.450;11.052;2023-07-08T22:12:19;9.63;;;8.65;;
14272;SDS011;7220;49.450;11.052;2023-07-08T22:16:20;12.23;;;8.68;;
14272;SDS011;7220;49.450;11.052;2023-07-08T22:20:24;9.13;;;8.13;;
14272;SDS011;7220;49.450;11.052;2023-07-08T22:24:28;9.27;;;8.30;;
14272;SDS011;7220;49.450;11.052;2023-07-08T22:28:29;10.13;;;8.23;;
14272;SDS011;7220;49.450;11.052;2023-07-08T22:32:29;11.83;;;9.30;;
14272;SDS011;7220;49.450;11.052;2023-07-08T22:36:29;13.02;;;9.65;;
14272;SDS011;7220;49.450;11.052;2023-07-08T22:40:30;9.98;;;8.73;;
14272;SDS011;7220;49.450;11.052;2023-07-08T22:44:33;11.68;;;9.63;;
14272;SDS011;7220;49.450;11.052;2023-07-08T22:48:33;10.60;;;9.40;;
14272;SDS011;7220;49.450;11.052;2023-07-08T22:52:34;12.13;;;9.63;;
14272;SDS011;7220;49.450;11.052;2023-07-08T22:56:36;13.15;;;11.40;;
14272;SDS011;7220;49.450;11.052;2023-07-08T23:00:36;12.03;;;10.50;;
14272;SDS011;7220;49.450;11.052;2023-07-08T23:04:39;12.35;;;9.65;;
14272;SDS011;7220;49.450;11.052;2023-07-08T23:08:39;10.57;;;9.50;;
14272;SDS011;7220;49.450;11.052;2023-07-08T23:12:40;9.85;;;8.88;;
14272;SDS011;7220;49.450;11.052;2023-07-08T23:16:41;10.00;;;9.00;;
14272;SDS011;7220;49.450;11.052;2023-07-08T23:20:42;11.95;;;9.13;;
14272;SDS011;7220;49.450;11.052;2023-07-08T23:24:42;11.18;;;8.38;;
14272;SDS011;7220;49.450;11.052;2023-07-08T23:28:44;11.05;;;9.63;;
14272;SDS011;7220;49.450;11.052;2023-07-08T23:32:46;9.50;;;8.60;;
14272;SDS011;7220;49.450;11.052;2023-07-08T23:36:48;13.70;;;9.13;;
14272;SDS011;7220;49.450;11.052;2023-07-08T23:40:51;9.48;;;8.50;;
14272;SDS011;7220;49.450;11.052;2023-07-08T23:44:51;8.90;;;7.67;;
14272;SDS011;7220;49.450;11.052;2023-07-08T23:48:53;9.40;;;8.40;;
14272;SDS011;7220;49.450;11.052;2023-07-08T23:52:54;9.40;;;8.13;;
14272;SDS011;7220;49.450;11.052;2023-07-08T23:56:55;9.13;;;7.83;;
